RYR99WT EGSS-EKCH
Flight info
| Callsign | RYR99WT |
|---|---|
| Flight time | N/A |
| Altitude | 37000 |
| Route | CLN P44 SOMVA DCT MAVAS DCT TULIP Y12 SPY DCT DOSUR P729 TUDLO |
| Aircraft | B738/M-SDE2E3FGHIRWXY/LB1 |
Departure
| Time | 2026-05-07 19:39 |
|---|---|
| Airport | London Stansted Airport (EGSS) |
Arrival
| Time | N/A |
|---|---|
| Airport | Copenhagen Kastrup Airport (EKCH) |
| Time | Latitude | Longitude | Altitude | Speed | Heading |
|---|---|---|---|---|---|
| 2026-05-07 19:14 | 51.89238 | 0.25959 | 358 ft | 0 kts | 42° |
| 2026-05-07 19:28 | 51.89223 | 0.25936 | 361 ft | 2 kts | 43° |
| 2026-05-07 19:28 | 51.89207 | 0.25915 | 356 ft | 4 kts | 5° |
| 2026-05-07 19:28 | 51.89188 | 0.25927 | 356 ft | 4 kts | 313° |
| 2026-05-07 19:29 | 51.89176 | 0.25948 | 357 ft | 0 kts | 313° |
| 2026-05-07 19:33 | 51.89178 | 0.25945 | 358 ft | 1 kts | 313° |
| 2026-05-07 19:33 | 51.89195 | 0.25917 | 359 ft | 6 kts | 316° |
| 2026-05-07 19:34 | 51.89240 | 0.25841 | 351 ft | 12 kts | 311° |
| 2026-05-07 19:34 | 51.89311 | 0.25713 | 351 ft | 18 kts | 312° |
| 2026-05-07 19:34 | 51.89344 | 0.25545 | 357 ft | 17 kts | 234° |
| 2026-05-07 19:34 | 51.89250 | 0.25389 | 351 ft | 21 kts | 223° |
| 2026-05-07 19:35 | 51.89129 | 0.25210 | 354 ft | 26 kts | 221° |
| 2026-05-07 19:35 | 51.88987 | 0.25000 | 351 ft | 28 kts | 223° |
| 2026-05-07 19:35 | 51.88851 | 0.24788 | 354 ft | 27 kts | 223° |
| 2026-05-07 19:35 | 51.88715 | 0.24588 | 351 ft | 27 kts | 224° |
| 2026-05-07 19:36 | 51.88582 | 0.24386 | 347 ft | 26 kts | 220° |
| 2026-05-07 19:36 | 51.88452 | 0.24190 | 350 ft | 25 kts | 223° |
| 2026-05-07 19:36 | 51.88330 | 0.24008 | 348 ft | 23 kts | 222° |
| 2026-05-07 19:36 | 51.88213 | 0.23832 | 346 ft | 23 kts | 223° |
| 2026-05-07 19:37 | 51.88091 | 0.23649 | 338 ft | 24 kts | 223° |
| 2026-05-07 19:37 | 51.87972 | 0.23471 | 340 ft | 23 kts | 223° |
| 2026-05-07 19:37 | 51.87855 | 0.23298 | 340 ft | 23 kts | 221° |
| 2026-05-07 19:37 | 51.87738 | 0.23121 | 337 ft | 23 kts | 230° |
| 2026-05-07 19:38 | 51.87787 | 0.22928 | 339 ft | 21 kts | 315° |
| 2026-05-07 19:38 | 51.87896 | 0.22745 | 331 ft | 25 kts | 313° |
| 2026-05-07 19:38 | 51.88007 | 0.22741 | 329 ft | 22 kts | 43° |
| 2026-05-07 19:38 | 51.88295 | 0.23173 | 334 ft | 90 kts | 43° |
| 2026-05-07 19:39 | 51.88900 | 0.24093 | 358 ft | 145 kts | 43° |
| 2026-05-07 19:39 | 51.89688 | 0.25266 | 756 ft | 160 kts | 43° |
| 2026-05-07 19:39 | 51.90556 | 0.26515 | 1328 ft | 170 kts | 45° |
| 2026-05-07 19:39 | 51.91317 | 0.28038 | 1804 ft | 182 kts | 66° |
| 2026-05-07 19:40 | 51.91687 | 0.30118 | 2087 ft | 205 kts | 89° |
| 2026-05-07 19:40 | 51.91456 | 0.32468 | 2299 ft | 220 kts | 115° |
| 2026-05-07 19:40 | 51.90758 | 0.34772 | 2577 ft | 239 kts | 119° |
| 2026-05-07 19:40 | 51.89998 | 0.37264 | 3059 ft | 254 kts | 117° |
| 2026-05-07 19:41 | 51.89483 | 0.38992 | 3511 ft | 259 kts | 117° |